Terminal Aerodrome Forecast
Issued by NWS

Home | Current Version | Previous Version | Text Only | Print | Product List | Glossary On
Versions: 1 2 3 4 5 6 7 8 9 10 11 12 13 14 15 16 17 18 19 20 21 22 23 24
919
FTUS41 KPHI 282320
TAFPNE
TAF
KPNE 282320Z 2900/2924 02008KT 4SM -SHRA BKN009 OVC011
     FM290200 01006KT 4SM BR OVC005
     FM290700 35005KT 6SM BR BKN008 OVC015
     FM291000 34008KT P6SM BKN015 BKN050
     FM291200 34010KT P6SM FEW070 SCT250
     FM291400 34012G20KT P6SM SCT250=

USA.gov is the U.S. government's official web portal to all federal, state and local government web resources and services.